createdAt,value
2019-05-22T00:02:36.898Z,83.55
2019-05-22T00:05:13.749Z,70.60
2019-05-22T00:07:43.970Z,67.85
2019-05-22T00:10:18.856Z,62.48
2019-05-22T00:12:48.452Z,58.68
2019-05-22T00:15:17.979Z,64.85
2019-05-22T00:17:48.497Z,74.47
2019-05-22T00:20:19.534Z,61.68
2019-05-22T00:22:50.678Z,68.37
2019-05-22T00:25:20.210Z,65.78
2019-05-22T00:27:49.212Z,66.50
2019-05-22T00:30:19.743Z,69.27
2019-05-22T00:32:49.757Z,60.78
2019-05-22T00:35:20.808Z,57.80
2019-05-22T00:37:50.184Z,65.70
2019-05-22T00:40:19.827Z,65.95
2019-05-22T00:43:03.247Z,58.25
2019-05-22T00:45:23.880Z,55.10
2019-05-22T00:47:52.433Z,59.10
2019-05-22T00:50:27.737Z,54.35
2019-05-22T00:53:08.963Z,57.78
2019-05-22T00:55:41.191Z,56.23
2019-05-22T00:58:12.937Z,59.27
2019-05-22T01:01:00.102Z,62.23
2019-05-22T01:03:31.439Z,66.37
2019-05-22T01:06:00.670Z,64.17
2019-05-22T01:08:30.486Z,71.05
2019-05-22T01:11:00.311Z,71.65
2019-05-22T01:13:34.528Z,73.52
2019-05-22T01:16:06.578Z,74.35
2019-05-22T01:18:37.614Z,73.33
2019-05-22T01:21:07.278Z,68.72
2019-05-22T01:23:38.428Z,68.00
2019-05-22T01:26:08.629Z,65.55
2019-05-22T01:28:38.072Z,62.53
2019-05-22T01:31:12.931Z,65.83
2019-05-22T01:33:46.813Z,58.08
2019-05-22T01:36:32.742Z,51.92
2019-05-22T01:39:15.707Z,56.28
2019-05-22T01:41:49.545Z,56.42
2019-05-22T01:44:20.368Z,62.25
2019-05-22T01:46:49.932Z,57.08
2019-05-22T01:49:21.569Z,68.40
2019-05-22T01:51:50.211Z,58.75
2019-05-22T01:54:18.727Z,49.70
2019-05-22T01:56:50.272Z,57.08
2019-05-22T01:59:19.933Z,48.73
2019-05-22T02:01:49.071Z,52.03
2019-05-22T02:04:18.593Z,41.80
2019-05-22T02:06:47.508Z,36.40
2019-05-22T02:09:26.404Z,38.53
2019-05-22T02:12:09.340Z,38.17
2019-05-22T02:14:43.848Z,31.73
2019-05-22T02:17:14.996Z,27.52
2019-05-22T02:19:43.737Z,26.75
2019-05-22T02:22:14.560Z,26.20
2019-05-22T02:24:45.951Z,25.15
2019-05-22T02:27:16.206Z,26.50
2019-05-22T02:29:46.339Z,21.82
2019-05-22T02:32:16.764Z,24.18
2019-05-22T02:34:45.772Z,21.45
2019-05-22T02:37:15.102Z,21.82
2019-05-22T02:39:43.907Z,20.02
2019-05-22T02:42:18.365Z,25.10
2019-05-22T02:44:47.983Z,21.25
2019-05-22T02:47:20.831Z,21.68
2019-05-22T02:49:49.442Z,24.80
2019-05-22T02:52:19.596Z,18.57
2019-05-22T02:54:49.190Z,23.02
2019-05-22T02:57:18.534Z,22.15
2019-05-22T02:59:47.755Z,19.82
2019-05-22T03:02:17.370Z,21.85
2019-05-22T03:04:53.969Z,18.85
2019-05-22T03:07:23.961Z,22.60
2019-05-22T03:09:53.240Z,23.60
2019-05-22T03:12:23.962Z,19.35
2019-05-22T03:14:53.770Z,24.40
2019-05-22T03:17:27.596Z,21.85
2019-05-22T03:19:57.625Z,21.35
2019-05-22T03:22:33.861Z,20.70
2019-05-22T03:25:07.952Z,18.80
2019-05-22T03:27:47.170Z,19.80
2019-05-22T03:30:23.798Z,21.42
2019-05-22T03:32:53.688Z,21.80
2019-05-22T03:35:25.445Z,24.67
2019-05-22T03:37:56.210Z,18.57
2019-05-22T03:40:26.224Z,25.68
2019-05-22T03:42:56.581Z,22.82
2019-05-22T03:45:25.301Z,24.32
2019-05-22T03:47:56.205Z,21.68
2019-05-22T03:50:25.645Z,21.80
2019-05-22T03:52:57.298Z,23.62
2019-05-22T03:55:26.686Z,25.68
2019-05-22T03:57:55.673Z,27.17
2019-05-22T04:00:26.489Z,29.20
2019-05-22T04:02:56.054Z,27.22
2019-05-22T04:05:25.601Z,32.45
2019-05-22T04:07:56.374Z,32.03
2019-05-22T04:10:28.322Z,29.85
2019-05-22T04:12:57.230Z,27.93
2019-05-22T04:15:27.064Z,32.45
2019-05-22T04:18:04.251Z,32.58
2019-05-22T04:20:32.983Z,29.30
2019-05-22T04:23:01.508Z,28.60
2019-05-22T04:25:30.732Z,28.73
2019-05-22T04:27:59.652Z,28.83
2019-05-22T04:30:28.970Z,27.75
2019-05-22T04:32:59.680Z,29.23
2019-05-22T04:35:28.712Z,25.37
2019-05-22T04:37:58.037Z,36.40
2019-05-22T04:40:48.417Z,30.08
2019-05-22T04:43:20.893Z,25.00
2019-05-22T04:45:50.025Z,29.07
2019-05-22T04:48:19.408Z,28.73
2019-05-22T04:50:49.554Z,23.85
2019-05-22T04:53:18.844Z,29.05
2019-05-22T04:55:47.794Z,28.77
2019-05-22T04:58:21.289Z,26.02
2019-05-22T05:00:49.926Z,26.82
2019-05-22T05:03:20.032Z,25.27
2019-05-22T05:05:51.265Z,23.95
2019-05-22T05:08:19.901Z,24.95
2019-05-22T05:10:51.787Z,25.32
2019-05-22T05:13:20.738Z,25.10
2019-05-22T05:15:49.356Z,25.02
2019-05-22T05:18:17.983Z,23.65
2019-05-22T05:20:46.909Z,24.12
2019-05-22T05:23:15.726Z,24.02
2019-05-22T05:25:44.550Z,17.37
2019-05-22T05:28:15.289Z,23.62
2019-05-22T05:30:44.608Z,21.37
2019-05-22T05:33:13.639Z,19.67
2019-05-22T05:35:43.065Z,23.83
2019-05-22T05:38:13.284Z,19.85
2019-05-22T05:40:42.682Z,16.32
2019-05-22T05:43:14.793Z,20.50
2019-05-22T05:45:45.891Z,19.27
2019-05-22T05:48:17.017Z,17.82
2019-05-22T05:51:35.276Z,15.23
2019-05-22T05:54:14.812Z,13.00
2019-05-22T05:56:45.576Z,17.87
2019-05-22T05:59:14.758Z,13.15
2019-05-22T06:01:50.295Z,13.70
2019-05-22T06:04:34.786Z,14.78
2019-05-22T06:07:23.760Z,13.70
2019-05-22T06:10:23.218Z,15.63
2019-05-22T06:12:51.972Z,11.45
2019-05-22T06:15:23.857Z,16.35
2019-05-22T06:18:40.655Z,12.50
2019-05-22T06:21:10.284Z,13.62
2019-05-22T06:24:34.742Z,31.82
2019-05-22T06:27:08.254Z,22.45
2019-05-22T06:29:46.690Z,11.45
2019-05-22T06:32:54.102Z,11.93
2019-05-22T06:35:26.074Z,11.18
2019-05-22T06:38:16.297Z,11.00
2019-05-22T06:40:45.115Z,12.03
2019-05-22T06:43:59.180Z,11.08
2019-05-22T06:46:44.871Z,13.80
2019-05-22T06:49:55.966Z,13.85
2019-05-22T06:52:25.009Z,12.80
2019-05-22T06:54:54.774Z,11.60
2019-05-22T06:57:32.672Z,11.93
2019-05-22T07:00:14.313Z,10.20
2019-05-22T07:02:39.612Z,9.38
2019-05-22T07:05:09.149Z,10.20
2019-05-22T07:07:38.088Z,11.63
2019-05-22T07:10:11.876Z,9.63
2019-05-22T07:12:42.654Z,9.20
2019-05-22T07:15:33.430Z,12.68
2019-05-22T07:18:03.472Z,12.82
2019-05-22T07:20:34.846Z,10.80
2019-05-22T07:23:06.128Z,18.12
2019-05-22T07:25:35.755Z,14.50
2019-05-22T07:28:05.345Z,12.93
2019-05-22T07:30:34.457Z,13.60
2019-05-22T07:33:03.913Z,14.60
2019-05-22T07:35:49.749Z,9.63
2019-05-22T07:38:03.500Z,9.93
2019-05-22T07:40:32.924Z,9.73
2019-05-22T07:43:01.549Z,12.03
2019-05-22T07:45:31.769Z,9.80
2019-05-22T07:48:00.775Z,10.30
2019-05-22T07:50:33.006Z,14.15
2019-05-22T07:53:03.289Z,12.63
2019-05-22T07:55:32.599Z,25.57
2019-05-22T07:58:08.663Z,19.75
2019-05-22T08:00:49.336Z,15.60
2019-05-22T08:03:18.998Z,7.55
2019-05-22T08:05:52.999Z,10.25
2019-05-22T08:10:53.641Z,21.65
2019-05-22T08:13:23.117Z,10.25
2019-05-22T08:15:52.012Z,15.03
2019-05-22T08:18:21.165Z,12.05
2019-05-22T08:20:49.886Z,13.10
2019-05-22T08:23:19.025Z,15.65
2019-05-22T08:25:47.863Z,11.38
2019-05-22T08:28:18.370Z,14.40
2019-05-22T08:30:48.465Z,7.53
2019-05-22T08:33:18.505Z,12.53
2019-05-22T08:35:47.552Z,14.53
2019-05-22T08:38:16.681Z,10.45
2019-05-22T08:40:46.734Z,18.98
2019-05-22T08:43:16.571Z,10.05
2019-05-22T08:45:45.990Z,10.25
2019-05-22T08:48:16.040Z,11.65
2019-05-22T08:50:45.828Z,12.90
2019-05-22T08:53:15.852Z,10.15
2019-05-22T08:55:44.991Z,10.15
2019-05-22T08:58:14.915Z,11.18
2019-05-22T09:00:44.406Z,8.13
2019-05-22T09:03:13.945Z,10.65
2019-05-22T09:05:43.553Z,16.50
2019-05-22T09:08:12.287Z,8.68
2019-05-22T09:10:41.504Z,13.03
2019-05-22T09:13:10.119Z,9.48
2019-05-22T09:15:39.560Z,12.23
2019-05-22T09:18:08.613Z,9.95
2019-05-22T09:20:48.873Z,10.68
2019-05-22T09:23:11.217Z,7.22
2019-05-22T09:25:40.273Z,6.12
2019-05-22T09:28:08.921Z,9.73
2019-05-22T09:30:37.539Z,7.03
2019-05-22T09:33:08.084Z,8.60
2019-05-22T09:35:36.820Z,8.00
2019-05-22T09:38:05.560Z,9.63
2019-05-22T09:40:34.590Z,7.42
2019-05-22T09:43:04.513Z,8.98
2019-05-22T09:45:35.266Z,7.35
2019-05-22T09:48:04.818Z,9.90
2019-05-22T09:50:34.183Z,11.93
2019-05-22T09:53:05.644Z,10.50
2019-05-22T09:55:35.428Z,14.93
2019-05-22T09:58:05.047Z,9.53
2019-05-22T10:00:33.775Z,14.20
2019-05-22T10:03:03.345Z,8.00
2019-05-22T10:05:32.195Z,15.20
2019-05-22T10:08:01.894Z,8.88
2019-05-22T10:10:31.049Z,7.53
2019-05-22T10:12:59.665Z,6.92
2019-05-22T10:15:29.325Z,7.10
2019-05-22T10:17:58.433Z,6.80
2019-05-22T10:20:27.053Z,8.08
2019-05-22T10:22:56.499Z,12.55
2019-05-22T10:25:25.616Z,8.25
2019-05-22T10:27:54.237Z,8.75
2019-05-22T10:30:23.960Z,10.45
2019-05-22T10:32:52.794Z,8.08
2019-05-22T10:35:24.608Z,10.88
2019-05-22T10:37:54.466Z,9.95
2019-05-22T10:40:23.592Z,5.53
2019-05-22T10:42:52.526Z,10.28
2019-05-22T10:45:21.306Z,8.78
2019-05-22T10:47:50.412Z,7.87
2019-05-22T10:50:19.247Z,7.65
2019-05-22T10:52:53.711Z,7.65
2019-05-22T10:55:19.852Z,7.35
2019-05-22T10:57:48.511Z,10.72
2019-05-22T11:00:18.423Z,6.00
2019-05-22T11:02:48.301Z,7.08
2019-05-22T11:05:19.103Z,8.73
2019-05-22T11:07:48.432Z,8.45
2019-05-22T11:10:19.277Z,8.08
2019-05-22T11:12:48.298Z,7.45
2019-05-22T11:15:17.035Z,9.25
2019-05-22T11:17:45.942Z,8.90
2019-05-22T11:20:15.972Z,10.95
2019-05-22T11:22:44.644Z,6.28
2019-05-22T11:25:14.050Z,8.30
2019-05-22T11:27:43.137Z,10.40
2019-05-22T11:30:14.283Z,10.18
2019-05-22T11:32:43.407Z,7.42
2019-05-22T11:35:13.310Z,8.10
2019-05-22T11:37:42.049Z,14.75
2019-05-22T11:40:11.451Z,7.17
2019-05-22T11:42:40.849Z,8.18
2019-05-22T11:45:11.383Z,8.23
2019-05-22T11:47:40.203Z,11.33
2019-05-22T11:50:10.247Z,6.00
2019-05-22T11:52:40.015Z,5.08
2019-05-22T11:55:10.252Z,6.10
2019-05-22T11:57:40.357Z,7.05
2019-05-22T12:00:10.625Z,7.75
2019-05-22T12:02:39.571Z,7.83
2019-05-22T12:05:10.792Z,6.37
2019-05-22T12:07:40.322Z,5.53
2019-05-22T12:10:09.965Z,6.10
2019-05-22T12:12:39.790Z,9.95
2019-05-22T12:15:10.949Z,11.15
2019-05-22T12:17:39.918Z,7.35
2019-05-22T12:20:09.540Z,6.37
2019-05-22T12:22:38.408Z,7.35
2019-05-22T12:25:09.367Z,7.70
2019-05-22T12:27:38.513Z,7.12
2019-05-22T12:30:09.236Z,8.70
2019-05-22T12:32:38.766Z,5.75
2019-05-22T12:35:07.755Z,6.47
2019-05-22T12:37:36.574Z,7.37
2019-05-22T12:40:05.738Z,6.75
2019-05-22T12:42:35.049Z,9.08
2019-05-22T12:45:06.446Z,7.92
2019-05-22T12:47:35.989Z,8.88
2019-05-22T12:50:05.356Z,7.25
2019-05-22T12:52:34.360Z,7.25
2019-05-22T12:55:03.834Z,8.03
2019-05-22T12:57:32.981Z,7.55
2019-05-22T13:00:03.007Z,7.92
2019-05-22T13:02:32.925Z,9.00
2019-05-22T13:05:01.957Z,8.05
2019-05-22T13:07:30.945Z,9.83
2019-05-22T13:09:59.679Z,8.03
2019-05-22T13:12:29.397Z,11.30
2019-05-22T13:15:09.139Z,9.88
2019-05-22T13:17:31.669Z,16.42
2019-05-22T13:20:01.984Z,8.83
2019-05-22T13:22:32.538Z,6.92
2019-05-22T13:25:02.087Z,9.10
2019-05-22T13:27:32.912Z,8.03
2019-05-22T13:30:03.544Z,7.92
2019-05-22T13:32:34.636Z,6.83
2019-05-22T13:35:04.080Z,10.58
2019-05-22T13:37:32.780Z,6.92
2019-05-22T13:40:01.849Z,8.10
2019-05-22T13:42:30.560Z,8.30
2019-05-22T13:44:59.368Z,11.28
2019-05-22T13:47:28.045Z,11.12
2019-05-22T13:49:56.791Z,8.85
2019-05-22T13:52:25.505Z,11.90
2019-05-22T13:54:55.745Z,6.75
2019-05-22T13:57:25.306Z,11.12
2019-05-22T13:59:54.019Z,9.65
2019-05-22T14:02:26.956Z,8.00
2019-05-22T14:04:53.923Z,9.50
2019-05-22T14:07:22.668Z,7.72
2019-05-22T14:09:52.186Z,7.37
2019-05-22T14:12:20.937Z,8.08
2019-05-22T14:14:50.364Z,8.95
2019-05-22T14:17:18.957Z,13.22
2019-05-22T14:19:47.824Z,19.62
2019-05-22T14:22:16.545Z,10.53
2019-05-22T14:24:45.259Z,9.28
2019-05-22T14:27:13.997Z,17.82
2019-05-22T14:29:42.813Z,15.83
2019-05-22T14:32:12.622Z,9.70
2019-05-22T14:34:41.375Z,8.65
2019-05-22T14:37:12.068Z,11.22
2019-05-22T14:39:41.177Z,8.53
2019-05-22T14:42:11.218Z,9.25
2019-05-22T14:44:39.932Z,8.05
2019-05-22T14:47:14.568Z,10.45
2019-05-22T14:49:39.692Z,9.10
2019-05-22T14:52:09.014Z,9.35
2019-05-22T14:54:37.708Z,9.95
2019-05-22T14:57:07.223Z,6.83
2019-05-22T14:59:36.344Z,8.68
2019-05-22T15:02:05.450Z,7.55
2019-05-22T15:04:34.405Z,7.17
2019-05-22T15:07:03.712Z,9.23
2019-05-22T15:09:32.520Z,7.65
2019-05-22T15:12:01.521Z,9.18
2019-05-22T15:14:30.128Z,8.50
2019-05-22T15:16:58.844Z,10.13
2019-05-22T15:19:27.491Z,12.15
2019-05-22T15:21:56.234Z,9.50
2019-05-22T15:24:25.085Z,13.40
2019-05-22T15:26:54.872Z,8.28
2019-05-22T15:29:23.788Z,9.20
2019-05-22T15:31:53.307Z,7.03
2019-05-22T15:34:23.339Z,7.75
2019-05-22T15:36:52.036Z,7.08
2019-05-22T15:39:22.855Z,8.78
2019-05-22T15:41:52.014Z,11.10
2019-05-22T15:44:21.748Z,6.37
2019-05-22T15:46:51.152Z,9.28
2019-05-22T15:49:20.408Z,7.97
2019-05-22T15:51:49.531Z,9.73
2019-05-22T15:54:18.458Z,9.10
2019-05-22T15:56:47.573Z,6.87
2019-05-22T15:59:16.396Z,7.42
2019-05-22T16:01:45.519Z,12.18
2019-05-22T16:04:15.851Z,8.85
2019-05-22T16:06:45.459Z,7.25
2019-05-22T16:09:16.731Z,7.12
2019-05-22T16:11:50.178Z,8.95
2019-05-22T16:14:19.192Z,7.08
2019-05-22T16:16:50.210Z,8.43
2019-05-22T16:19:22.608Z,9.25
2019-05-22T16:21:54.964Z,8.75
2019-05-22T16:24:24.102Z,9.68
2019-05-22T16:26:52.747Z,8.10
2019-05-22T16:29:23.273Z,10.45
2019-05-22T16:31:54.798Z,7.72
2019-05-22T16:34:23.614Z,8.13
2019-05-22T16:36:53.608Z,10.98
2019-05-22T16:39:23.119Z,9.53
2019-05-22T16:41:52.674Z,10.05
2019-05-22T16:44:21.386Z,8.25
2019-05-22T16:46:50.622Z,7.50
2019-05-22T16:49:19.952Z,7.17
2019-05-22T16:51:49.369Z,8.70
2019-05-22T16:54:20.732Z,8.30
2019-05-22T16:56:48.945Z,10.75
2019-05-22T16:59:18.178Z,9.93
2019-05-22T17:01:58.879Z,9.98
2019-05-22T17:04:17.969Z,9.80
2019-05-22T17:06:46.888Z,8.48
2019-05-22T17:09:18.270Z,10.30
2019-05-22T17:11:47.320Z,11.30
2019-05-22T17:14:18.955Z,10.93
2019-05-22T17:16:48.497Z,10.78
2019-05-22T17:19:26.667Z,10.20
2019-05-22T17:21:48.286Z,17.25
2019-05-22T17:24:19.202Z,9.55
2019-05-22T17:26:50.951Z,9.50
2019-05-22T17:29:19.872Z,9.05
2019-05-22T17:31:48.981Z,19.45
2019-05-22T17:34:37.033Z,11.48
2019-05-22T17:37:12.997Z,9.25
2019-05-22T17:39:45.880Z,11.60
2019-05-22T17:42:16.630Z,9.53
2019-05-22T17:44:47.000Z,12.98
2019-05-22T17:47:18.562Z,9.05
2019-05-22T17:49:47.886Z,10.55
2019-05-22T17:52:18.002Z,14.30
2019-05-22T17:54:48.658Z,12.90
2019-05-22T17:57:18.842Z,11.50
2019-05-22T17:59:47.553Z,13.18
2019-05-22T18:02:18.925Z,15.10
2019-05-22T18:04:48.329Z,15.85
2019-05-22T18:07:17.049Z,12.55
2019-05-22T18:09:46.174Z,11.12
2019-05-22T18:12:15.228Z,14.07
2019-05-22T18:14:45.928Z,15.28
2019-05-22T18:17:15.147Z,13.93
2019-05-22T18:19:44.284Z,16.62
2019-05-22T18:22:13.812Z,11.28
2019-05-22T18:24:42.378Z,16.87
2019-05-22T18:27:10.982Z,14.58
2019-05-22T18:29:39.601Z,13.18
2019-05-22T18:32:09.843Z,13.75
2019-05-22T18:34:38.460Z,13.28
2019-05-22T18:37:07.203Z,16.57
2019-05-22T18:39:36.335Z,14.07
2019-05-22T18:42:05.290Z,18.55
2019-05-22T18:44:33.797Z,14.73
2019-05-22T18:47:03.439Z,12.95
2019-05-22T18:49:31.952Z,16.80
2019-05-22T18:52:00.918Z,13.70
2019-05-22T18:54:29.627Z,11.08
2019-05-22T18:56:58.199Z,14.95
2019-05-22T18:59:26.934Z,13.05
2019-05-22T19:01:55.679Z,12.28
2019-05-22T19:04:24.472Z,16.70
2019-05-22T19:06:55.880Z,13.35
2019-05-22T19:09:24.240Z,10.88
2019-05-22T19:11:53.156Z,12.15
2019-05-22T19:14:22.360Z,14.18
2019-05-22T19:16:51.180Z,17.32
2019-05-22T19:19:20.016Z,18.27
2019-05-22T19:21:48.824Z,14.38
2019-05-22T19:24:18.230Z,12.07
2019-05-22T19:26:47.440Z,14.55
2019-05-22T19:29:16.356Z,13.40
2019-05-22T19:31:44.908Z,10.25
2019-05-22T19:34:13.526Z,13.28
2019-05-22T19:36:42.461Z,15.48
2019-05-22T19:39:11.404Z,13.60
2019-05-22T19:41:40.428Z,14.25
2019-05-22T19:44:10.145Z,13.62
2019-05-22T19:46:39.282Z,18.55
2019-05-22T19:49:08.513Z,14.40
2019-05-22T19:51:37.450Z,12.33
2019-05-22T19:54:07.028Z,10.75
2019-05-22T19:56:35.936Z,14.68
2019-05-22T19:59:04.991Z,14.68
2019-05-22T20:01:33.720Z,16.52
2019-05-22T20:04:02.448Z,15.70
2019-05-22T20:06:31.660Z,16.95
2019-05-22T20:09:00.202Z,13.30
2019-05-22T20:11:29.122Z,15.00
2019-05-22T20:13:58.446Z,16.15
2019-05-22T20:16:27.073Z,15.55
2019-05-22T20:18:56.190Z,16.65
2019-05-22T20:21:25.683Z,13.10
2019-05-22T20:23:54.232Z,11.65
2019-05-22T20:26:22.939Z,12.25
2019-05-22T20:28:52.372Z,13.80
2019-05-22T20:31:21.155Z,14.47
2019-05-22T20:33:49.787Z,13.85
2019-05-22T20:36:18.798Z,16.45
2019-05-22T20:38:47.443Z,19.10
2019-05-22T20:41:17.166Z,16.40
2019-05-22T20:43:46.494Z,16.32
2019-05-22T20:46:17.886Z,17.87
2019-05-22T20:48:47.700Z,17.80
2019-05-22T20:51:17.531Z,19.10
2019-05-22T20:53:53.940Z,19.42
2019-05-22T20:56:20.212Z,19.37
2019-05-22T20:58:49.333Z,23.65
2019-05-22T21:01:18.382Z,22.73
2019-05-22T21:03:47.222Z,24.10
2019-05-22T21:06:18.840Z,22.27
2019-05-22T21:08:49.287Z,29.85
2019-05-22T21:11:21.719Z,29.27
2019-05-22T21:13:51.748Z,26.73
2019-05-22T21:16:21.162Z,26.60
2019-05-22T21:18:51.730Z,24.23
2019-05-22T21:21:21.570Z,25.32
2019-05-22T21:23:50.602Z,29.87
2019-05-22T21:26:19.821Z,29.40
2019-05-22T21:28:48.884Z,30.95
2019-05-22T21:31:19.396Z,29.67
2019-05-22T21:33:49.516Z,31.82
2019-05-22T21:36:19.330Z,29.90
2019-05-22T21:38:48.351Z,30.10
2019-05-22T21:41:19.895Z,30.57
2019-05-22T21:43:49.014Z,30.45
2019-05-22T21:46:18.126Z,32.38
2019-05-22T21:48:49.963Z,30.90
2019-05-22T21:51:18.599Z,33.88
2019-05-22T21:53:47.443Z,29.55
2019-05-22T21:56:16.634Z,30.62
2019-05-22T21:58:45.890Z,30.12
2019-05-22T22:01:26.592Z,29.75
2019-05-22T22:04:00.475Z,28.07
2019-05-22T22:06:33.202Z,29.70
2019-05-22T22:09:00.371Z,35.25
2019-05-22T22:11:29.601Z,30.10
2019-05-22T22:13:58.727Z,32.50
2019-05-22T22:16:27.259Z,29.70
2019-05-22T22:18:56.490Z,30.43
2019-05-22T22:21:25.603Z,45.30
2019-05-22T22:23:54.638Z,36.85
2019-05-22T22:26:25.889Z,34.13
2019-05-22T22:28:54.501Z,33.05
2019-05-22T22:31:25.574Z,29.00
2019-05-22T22:34:02.182Z,36.95
2019-05-22T22:36:31.632Z,34.92
2019-05-22T22:39:00.269Z,35.00
2019-05-22T22:41:29.679Z,32.28
2019-05-22T22:43:59.074Z,37.23
2019-05-22T22:46:38.359Z,33.15
2019-05-22T22:49:12.283Z,33.33
2019-05-22T22:51:41.796Z,31.00
2019-05-22T22:54:12.252Z,36.88
2019-05-22T22:56:41.305Z,29.70
2019-05-22T22:59:11.100Z,31.30
2019-05-22T23:01:41.329Z,30.55
2019-05-22T23:04:11.601Z,33.48
2019-05-22T23:06:40.634Z,33.58
2019-05-22T23:09:11.825Z,31.30
2019-05-22T23:11:42.841Z,31.02
2019-05-22T23:14:12.211Z,32.40
2019-05-22T23:16:41.123Z,36.30
2019-05-22T23:19:33.533Z,37.78
2019-05-22T23:22:04.853Z,31.60
2019-05-22T23:24:34.991Z,34.33
2019-05-22T23:27:05.872Z,30.80
2019-05-22T23:29:35.096Z,34.33
2019-05-22T23:32:05.944Z,34.55
2019-05-22T23:34:35.459Z,36.48
2019-05-22T23:37:06.184Z,34.33
2019-05-22T23:39:35.495Z,34.53
2019-05-22T23:42:11.958Z,31.97
2019-05-22T23:44:40.888Z,31.02
2019-05-22T23:47:10.352Z,30.02
2019-05-22T23:49:40.573Z,30.68
2019-05-22T23:52:11.684Z,32.33
2019-05-22T23:54:40.715Z,26.97
2019-05-22T23:57:12.332Z,29.40
2019-05-22T23:59:43.816Z,32.73
